createdAt,value
2022-11-06T00:00:57.601Z,6.72
2022-11-06T00:03:24.561Z,4.88
2022-11-06T00:05:51.142Z,5.45
2022-11-06T00:08:28.457Z,5.82
2022-11-06T00:10:55.145Z,5.70
2022-11-06T00:13:21.521Z,7.63
2022-11-06T00:15:47.946Z,6.00
2022-11-06T00:18:14.840Z,3.97
2022-11-06T00:20:41.410Z,7.28
2022-11-06T00:23:08.188Z,7.93
2022-11-06T00:25:40.352Z,7.00
2022-11-06T00:28:06.755Z,4.63
2022-11-06T00:30:33.183Z,7.32
2022-11-06T00:32:59.585Z,5.05
2022-11-06T00:35:26.225Z,4.75
2022-11-06T00:37:52.633Z,3.95
2022-11-06T00:40:19.007Z,4.95
2022-11-06T00:42:46.762Z,5.15
2022-11-06T00:45:13.791Z,4.22
2022-11-06T00:47:40.183Z,5.88
2022-11-06T00:50:07.532Z,6.50
2022-11-06T00:52:33.929Z,5.68
2022-11-06T00:55:00.365Z,5.53
2022-11-06T00:57:26.744Z,6.38
2022-11-06T00:59:54.483Z,8.57
2022-11-06T01:02:21.315Z,7.60
2022-11-06T01:04:47.850Z,6.65
2022-11-06T01:07:14.317Z,6.20
2022-11-06T01:09:40.718Z,4.97
2022-11-06T01:12:14.797Z,6.88
2022-11-06T01:14:42.798Z,6.10
2022-11-06T01:17:11.209Z,6.15
2022-11-06T01:19:37.736Z,4.72
2022-11-06T01:22:04.671Z,4.88
2022-11-06T01:24:31.151Z,8.05
2022-11-06T01:27:26.127Z,7.10
2022-11-06T01:29:44.946Z,7.30
2022-11-06T01:32:13.021Z,6.28
2022-11-06T01:34:39.573Z,4.28
2022-11-06T01:37:06.827Z,6.50
2022-11-06T01:39:35.540Z,5.68
2022-11-06T01:42:01.954Z,6.13
2022-11-06T01:45:14.441Z,6.07
2022-11-06T01:47:42.821Z,8.40
2022-11-06T01:50:10.705Z,5.95
2022-11-06T01:52:37.536Z,6.15
2022-11-06T01:55:12.519Z,8.70
2022-11-06T01:57:39.247Z,4.30
2022-11-06T02:00:07.903Z,6.68
2022-11-06T02:02:35.723Z,4.65
2022-11-06T02:05:04.189Z,6.13
2022-11-06T02:07:30.945Z,6.97
2022-11-06T02:09:57.355Z,6.60
2022-11-06T02:12:38.793Z,6.57
2022-11-06T02:15:24.201Z,4.40
2022-11-06T02:18:16.679Z,5.90
2022-11-06T02:20:57.963Z,6.93
2022-11-06T02:23:36.734Z,4.75
2022-11-06T02:26:16.962Z,6.55
2022-11-06T02:28:51.035Z,6.35
2022-11-06T02:31:26.650Z,5.65
2022-11-06T02:33:59.425Z,6.88
2022-11-06T02:36:30.037Z,4.77
2022-11-06T02:38:59.139Z,7.20
2022-11-06T02:41:29.757Z,7.32
2022-11-06T02:43:58.438Z,6.43
2022-11-06T02:46:29.604Z,6.00
2022-11-06T02:49:01.047Z,7.85
2022-11-06T02:51:31.642Z,8.52
2022-11-06T02:54:02.253Z,7.22
2022-11-06T02:56:34.214Z,7.82
2022-11-06T02:59:04.594Z,7.30
2022-11-06T03:01:35.193Z,6.60
2022-11-06T03:04:05.526Z,8.15
2022-11-06T03:06:35.830Z,9.25
2022-11-06T03:09:06.683Z,6.57
2022-11-06T03:11:36.122Z,8.18
2022-11-06T03:14:09.346Z,8.45
2022-11-06T03:16:44.606Z,10.50
2022-11-06T03:19:18.938Z,7.15
2022-11-06T03:21:52.775Z,10.82
2022-11-06T03:26:51.633Z,7.13
2022-11-06T03:29:24.223Z,9.40
2022-11-06T03:31:55.383Z,7.93
2022-11-06T03:34:29.086Z,8.45
2022-11-06T03:39:30.172Z,8.10
2022-11-06T03:42:02.669Z,6.68
2022-11-06T03:44:33.663Z,7.38
2022-11-06T03:47:06.910Z,7.55
2022-11-06T03:49:39.519Z,5.90
2022-11-06T03:52:10.918Z,11.07
2022-11-06T03:54:42.935Z,7.63
2022-11-06T03:57:13.885Z,9.25
2022-11-06T03:59:46.382Z,9.13
2022-11-06T04:02:15.365Z,7.22
2022-11-06T04:04:48.928Z,8.35
2022-11-06T04:07:19.603Z,6.07
2022-11-06T04:09:52.400Z,8.57
2022-11-06T04:12:24.737Z,6.85
2022-11-06T04:14:55.460Z,8.85
2022-11-06T04:17:26.221Z,7.65
2022-11-06T04:19:57.904Z,6.45
2022-11-06T04:22:37.088Z,8.90
2022-11-06T04:25:15.995Z,8.85
2022-11-06T04:27:53.608Z,7.05
2022-11-06T04:30:21.761Z,11.75
2022-11-06T04:33:00.581Z,8.07
2022-11-06T04:35:34.075Z,11.20
2022-11-06T04:38:04.281Z,4.22
2022-11-06T04:40:41.879Z,9.70
2022-11-06T04:43:14.762Z,7.25
2022-11-06T04:45:47.296Z,5.70
2022-11-06T04:48:14.626Z,5.95
2022-11-06T04:50:46.211Z,7.60
2022-11-06T04:53:14.737Z,7.53
2022-11-06T04:55:47.103Z,6.45
2022-11-06T04:58:14.112Z,6.78
2022-11-06T05:00:45.739Z,6.13
2022-11-06T05:03:12.210Z,7.85
2022-11-06T05:05:38.672Z,10.05
2022-11-06T05:08:05.181Z,7.55
2022-11-06T05:10:31.608Z,7.63
2022-11-06T05:12:58.018Z,6.75
2022-11-06T05:15:24.678Z,8.48
2022-11-06T05:17:52.428Z,5.68
2022-11-06T05:20:18.850Z,6.90
2022-11-06T05:22:45.286Z,5.20
2022-11-06T05:25:11.674Z,4.97
2022-11-06T05:27:38.073Z,9.13
2022-11-06T05:30:05.896Z,5.85
2022-11-06T05:32:32.321Z,5.43
2022-11-06T05:35:00.076Z,10.32
2022-11-06T05:37:28.083Z,9.68
2022-11-06T05:39:54.467Z,9.80
2022-11-06T05:42:21.058Z,6.95
2022-11-06T05:44:47.477Z,7.97
2022-11-06T05:47:13.972Z,9.27
2022-11-06T05:49:40.460Z,7.45
2022-11-06T05:52:08.206Z,6.57
2022-11-06T05:54:34.629Z,7.90
2022-11-06T05:57:01.134Z,5.50
2022-11-06T05:59:27.661Z,8.48
2022-11-06T06:01:54.261Z,5.70
2022-11-06T06:04:20.881Z,8.25
2022-11-06T06:06:47.528Z,5.57
2022-11-06T06:09:15.275Z,7.05
2022-11-06T06:11:41.672Z,6.22
2022-11-06T06:14:08.101Z,8.45
2022-11-06T06:16:34.554Z,8.07
2022-11-06T06:19:01.427Z,8.32
2022-11-06T06:21:28.113Z,10.85
2022-11-06T06:23:54.501Z,6.13
2022-11-06T06:26:22.213Z,7.32
2022-11-06T06:28:48.924Z,9.30
2022-11-06T06:31:15.348Z,7.88
2022-11-06T06:33:41.775Z,7.30
2022-11-06T06:36:09.081Z,13.70
2022-11-06T06:38:35.707Z,8.43
2022-11-06T06:41:02.482Z,8.52
2022-11-06T06:43:30.554Z,8.60
2022-11-06T06:45:57.912Z,8.23
2022-11-06T06:48:24.480Z,5.45
2022-11-06T06:50:50.876Z,7.55
2022-11-06T06:53:17.277Z,5.55
2022-11-06T06:55:43.694Z,6.55
2022-11-06T06:58:13.638Z,5.63
2022-11-06T07:00:45.428Z,8.80
2022-11-06T07:03:12.141Z,9.10
2022-11-06T07:05:38.952Z,9.35
2022-11-06T07:08:05.539Z,9.38
2022-11-06T07:10:32.203Z,6.90
2022-11-06T07:13:00.846Z,7.88
2022-11-06T07:15:27.517Z,10.02
2022-11-06T07:17:55.281Z,8.77
2022-11-06T07:20:21.684Z,10.00
2022-11-06T07:22:48.084Z,9.27
2022-11-06T07:25:14.718Z,10.88
2022-11-06T07:27:41.094Z,12.73
2022-11-06T07:30:08.597Z,10.00
2022-11-06T07:32:35.022Z,7.60
2022-11-06T07:35:02.838Z,8.15
2022-11-06T07:37:29.327Z,10.48
2022-11-06T07:39:55.767Z,7.15
2022-11-06T07:42:22.220Z,10.48
2022-11-06T07:44:48.611Z,8.15
2022-11-06T07:47:15.091Z,8.00
2022-11-06T07:49:42.793Z,8.18
2022-11-06T07:52:13.366Z,13.00
2022-11-06T07:54:39.824Z,10.80
2022-11-06T07:57:06.230Z,9.85
2022-11-06T07:59:33.715Z,8.60
2022-11-06T08:02:00.356Z,10.07
2022-11-06T08:04:26.858Z,12.63
2022-11-06T08:06:53.267Z,7.22
2022-11-06T08:09:21.011Z,9.70
2022-11-06T08:11:48.746Z,10.63
2022-11-06T08:14:15.360Z,10.85
2022-11-06T08:16:41.786Z,9.05
2022-11-06T08:19:08.281Z,9.60
2022-11-06T08:21:34.907Z,9.00
2022-11-06T08:24:01.374Z,7.53
2022-11-06T08:26:29.118Z,9.50
2022-11-06T08:28:55.589Z,9.98
2022-11-06T08:31:22.039Z,7.72
2022-11-06T08:33:48.442Z,11.70
2022-11-06T08:36:14.907Z,7.88
2022-11-06T08:38:41.358Z,6.93
2022-11-06T08:41:09.976Z,10.15
2022-11-06T08:43:38.521Z,7.50
2022-11-06T08:46:05.411Z,9.00
2022-11-06T08:48:32.638Z,11.25
2022-11-06T08:50:59.116Z,6.57
2022-11-06T08:53:25.651Z,8.18
2022-11-06T08:55:52.249Z,8.30
2022-11-06T08:58:18.774Z,9.50
2022-11-06T09:00:46.906Z,7.90
2022-11-06T09:03:15.287Z,7.60
2022-11-06T09:05:42.626Z,7.85
2022-11-06T09:08:09.910Z,11.82
2022-11-06T09:10:37.874Z,6.88
2022-11-06T09:13:04.690Z,9.00
2022-11-06T09:15:31.276Z,7.45
2022-11-06T09:17:59.040Z,8.77
2022-11-06T09:20:26.049Z,11.63
2022-11-06T09:22:53.163Z,8.05
2022-11-06T09:25:19.854Z,6.05
2022-11-06T09:27:48.062Z,5.95
2022-11-06T09:30:16.666Z,8.02
2022-11-06T09:32:45.917Z,11.32
2022-11-06T09:35:13.775Z,9.70
2022-11-06T09:37:40.226Z,6.95
2022-11-06T09:40:08.290Z,12.98
2022-11-06T09:42:47.879Z,16.48
2022-11-06T09:45:18.186Z,9.57
2022-11-06T09:47:51.494Z,13.00
2022-11-06T09:50:23.838Z,12.40
2022-11-06T09:52:54.539Z,11.52
2022-11-06T09:55:24.905Z,24.38
2022-11-06T09:57:55.658Z,20.63
2022-11-06T10:00:22.977Z,12.43
2022-11-06T10:02:52.170Z,7.82
2022-11-06T10:05:26.010Z,9.27
2022-11-06T10:07:55.026Z,4.95
2022-11-06T10:10:29.347Z,5.75
2022-11-06T10:13:13.633Z,9.90
2022-11-06T10:15:49.868Z,9.10
2022-11-06T10:18:27.803Z,6.47
2022-11-06T10:21:04.912Z,5.38
2022-11-06T10:23:43.443Z,5.90
2022-11-06T10:26:14.537Z,5.88
2022-11-06T10:28:55.621Z,5.75
2022-11-06T10:31:32.931Z,7.25
2022-11-06T10:34:02.824Z,7.47
2022-11-06T10:36:37.068Z,9.30
2022-11-06T10:39:05.366Z,5.65
2022-11-06T10:41:35.462Z,8.35
2022-11-06T10:44:06.328Z,6.00
2022-11-06T10:46:36.288Z,8.05
2022-11-06T10:49:11.367Z,8.75
2022-11-06T10:51:55.351Z,9.02
2022-11-06T10:57:09.580Z,7.13
2022-11-06T10:59:36.051Z,6.13
2022-11-06T11:02:03.568Z,7.70
2022-11-06T11:04:31.994Z,7.53
2022-11-06T11:07:11.572Z,12.75
2022-11-06T11:09:38.066Z,8.70
2022-11-06T11:12:05.114Z,7.93
2022-11-06T11:14:32.126Z,8.07
2022-11-06T11:17:00.649Z,4.40
2022-11-06T11:19:34.239Z,8.07
2022-11-06T11:22:04.910Z,10.07
2022-11-06T11:24:31.840Z,7.40
2022-11-06T11:27:00.942Z,6.90
2022-11-06T11:29:30.834Z,6.28
2022-11-06T11:32:01.263Z,6.40
2022-11-06T11:34:30.858Z,6.90
2022-11-06T11:37:00.088Z,6.20
2022-11-06T11:39:31.030Z,5.10
2022-11-06T11:42:22.734Z,6.63
2022-11-06T11:45:11.945Z,7.38
2022-11-06T11:47:40.045Z,6.40
2022-11-06T11:50:25.969Z,12.15
2022-11-06T11:52:57.037Z,16.73
2022-11-06T11:55:27.411Z,10.35
2022-11-06T11:57:56.421Z,14.35
2022-11-06T12:00:24.375Z,15.88
2022-11-06T12:02:54.395Z,13.60
2022-11-06T12:05:23.394Z,25.60
2022-11-06T12:07:53.699Z,16.58
2022-11-06T12:10:30.964Z,9.93
2022-11-06T12:12:59.220Z,6.63
2022-11-06T12:15:27.998Z,6.60
2022-11-06T12:18:00.537Z,5.20
2022-11-06T12:20:42.626Z,4.15
2022-11-06T12:23:16.788Z,3.20
2022-11-06T12:25:50.927Z,6.43
2022-11-06T12:28:20.893Z,3.22
2022-11-06T12:30:53.551Z,6.25
2022-11-06T12:33:45.524Z,5.13
2022-11-06T12:36:17.531Z,7.43
2022-11-06T12:38:48.442Z,9.30
2022-11-06T12:41:22.109Z,8.35
2022-11-06T12:46:26.696Z,4.18
2022-11-06T12:49:09.164Z,5.57
2022-11-06T12:51:46.066Z,4.28
2022-11-06T12:54:26.487Z,3.65
2022-11-06T12:57:03.011Z,5.43
2022-11-06T12:59:41.780Z,5.68
2022-11-06T13:02:23.969Z,5.43
2022-11-06T13:04:56.447Z,8.10
2022-11-06T13:07:45.491Z,5.82
2022-11-06T13:10:23.690Z,5.80
2022-11-06T13:13:01.367Z,6.80
2022-11-06T13:15:36.585Z,5.13
2022-11-06T13:18:10.431Z,4.75
2022-11-06T13:20:45.862Z,7.60
2022-11-06T13:23:18.542Z,5.85
2022-11-06T13:25:53.634Z,4.88
2022-11-06T13:28:30.715Z,5.13
2022-11-06T13:30:58.223Z,3.95
2022-11-06T13:33:28.216Z,3.42
2022-11-06T13:35:55.215Z,3.38
2022-11-06T13:38:27.176Z,5.80
2022-11-06T13:41:02.202Z,5.20
2022-11-06T13:43:35.686Z,3.40
2022-11-06T13:46:08.665Z,4.72
2022-11-06T13:48:44.314Z,1.75
2022-11-06T13:51:19.204Z,4.80
2022-11-06T13:53:59.660Z,6.25
2022-11-06T13:57:09.330Z,4.03
2022-11-06T14:00:16.057Z,9.60
2022-11-06T14:03:18.790Z,9.55
2022-11-06T14:05:51.010Z,6.95
2022-11-06T14:08:22.975Z,4.95
2022-11-06T14:10:56.891Z,4.88
2022-11-06T14:13:25.301Z,5.68
2022-11-06T14:16:15.010Z,5.35
2022-11-06T14:18:41.989Z,6.10
2022-11-06T14:21:47.294Z,4.82
2022-11-06T14:24:28.872Z,9.98
2022-11-06T14:26:55.937Z,5.53
2022-11-06T14:29:59.701Z,6.57
2022-11-06T14:32:47.517Z,8.87
2022-11-06T14:35:50.779Z,3.90
2022-11-06T14:38:31.894Z,5.15
2022-11-06T14:40:58.981Z,4.93
2022-11-06T14:43:28.847Z,4.63
2022-11-06T14:45:58.354Z,6.93
2022-11-06T14:48:29.491Z,6.68
2022-11-06T14:50:57.977Z,4.63
2022-11-06T14:53:27.183Z,4.25
2022-11-06T14:55:59.832Z,5.93
2022-11-06T14:58:29.844Z,4.65
2022-11-06T15:00:58.980Z,4.53
2022-11-06T15:03:36.375Z,4.70
2022-11-06T15:06:19.299Z,6.97
2022-11-06T15:08:53.887Z,6.00
2022-11-06T15:11:57.137Z,6.70
2022-11-06T15:14:56.542Z,7.35
2022-11-06T15:17:25.310Z,5.50
2022-11-06T15:19:59.888Z,5.15
2022-11-06T15:22:33.338Z,6.15
2022-11-06T15:25:11.138Z,3.15
2022-11-06T15:27:43.449Z,7.20
2022-11-06T15:30:16.082Z,4.72
2022-11-06T15:32:44.898Z,5.43
2022-11-06T15:35:15.667Z,5.53
2022-11-06T15:37:44.914Z,6.18
2022-11-06T15:40:24.322Z,7.38
2022-11-06T15:42:51.235Z,4.72
2022-11-06T15:45:23.367Z,6.07
2022-11-06T15:47:57.589Z,3.65
2022-11-06T15:50:26.975Z,4.57
2022-11-06T15:52:54.179Z,5.35
2022-11-06T15:55:29.030Z,4.20
2022-11-06T15:58:05.863Z,4.82
2022-11-06T16:00:35.173Z,9.73
2022-11-06T16:03:03.244Z,4.18
2022-11-06T16:05:34.131Z,7.10
2022-11-06T16:08:01.476Z,3.78
2022-11-06T16:10:28.141Z,4.20
2022-11-06T16:12:55.756Z,7.00
2022-11-06T16:15:51.780Z,5.95
2022-11-06T16:18:22.794Z,4.22
2022-11-06T16:20:52.993Z,4.25
2022-11-06T16:23:31.578Z,5.07
2022-11-06T16:26:04.408Z,4.03
2022-11-06T16:28:32.871Z,4.40
2022-11-06T16:31:08.657Z,3.33
2022-11-06T16:33:35.111Z,5.82
2022-11-06T16:36:11.549Z,3.08
2022-11-06T16:38:42.538Z,5.05
2022-11-06T16:41:10.922Z,3.95
2022-11-06T16:43:37.552Z,3.50
2022-11-06T16:46:06.152Z,5.25
2022-11-06T16:48:37.791Z,2.78
2022-11-06T16:51:29.942Z,3.10
2022-11-06T16:53:58.203Z,3.95
2022-11-06T16:56:28.391Z,2.35
2022-11-06T16:59:00.962Z,2.10
2022-11-06T17:01:28.431Z,4.45
2022-11-06T17:03:59.276Z,4.55
2022-11-06T17:06:30.651Z,5.72
2022-11-06T17:09:04.979Z,2.83
2022-11-06T17:11:34.494Z,4.28
2022-11-06T17:14:10.980Z,3.60
2022-11-06T17:16:46.132Z,3.72
2022-11-06T17:19:12.551Z,3.70
2022-11-06T17:21:40.333Z,3.45
2022-11-06T17:24:24.389Z,4.78
2022-11-06T17:26:54.375Z,4.90
2022-11-06T17:29:22.336Z,6.40
2022-11-06T17:31:48.955Z,4.78
2022-11-06T17:34:15.380Z,6.22
2022-11-06T17:36:43.414Z,5.25
2022-11-06T17:39:09.830Z,3.97
2022-11-06T17:41:36.257Z,5.03
2022-11-06T17:44:04.898Z,4.10
2022-11-06T17:46:33.414Z,4.38
2022-11-06T17:49:00.500Z,3.20
2022-11-06T17:51:26.930Z,4.38
2022-11-06T17:53:54.691Z,6.15
2022-11-06T17:56:21.136Z,3.65
2022-11-06T17:58:47.548Z,7.43
2022-11-06T18:01:14.012Z,6.53
2022-11-06T18:03:43.863Z,4.75
2022-11-06T18:06:10.604Z,5.25
2022-11-06T18:08:37.105Z,5.18
2022-11-06T18:11:05.384Z,4.07
2022-11-06T18:13:32.077Z,6.05
2022-11-06T18:15:58.621Z,3.78
2022-11-06T18:18:25.057Z,4.85
2022-11-06T18:20:51.482Z,4.90
2022-11-06T18:23:17.881Z,6.13
2022-11-06T18:25:52.939Z,7.88
2022-11-06T18:28:20.726Z,6.28
2022-11-06T18:30:47.109Z,4.60
2022-11-06T18:33:13.555Z,5.18
2022-11-06T18:35:39.973Z,4.75
2022-11-06T18:38:06.452Z,7.93
2022-11-06T18:40:32.901Z,4.05
2022-11-06T18:42:59.360Z,6.07
2022-11-06T18:45:27.410Z,4.43
2022-11-06T18:47:53.818Z,5.55
2022-11-06T18:50:20.254Z,3.80
2022-11-06T18:52:57.848Z,5.05
2022-11-06T18:55:24.812Z,4.50
2022-11-06T18:57:51.202Z,6.63
2022-11-06T19:00:17.639Z,4.47
2022-11-06T19:02:45.757Z,4.85
2022-11-06T19:05:12.736Z,3.58
2022-11-06T19:07:39.228Z,6.90
2022-11-06T19:10:06.974Z,4.65
2022-11-06T19:12:33.430Z,4.70
2022-11-06T19:14:59.857Z,4.70
2022-11-06T19:17:26.590Z,2.97
2022-11-06T19:19:54.362Z,5.38
2022-11-06T19:22:20.866Z,4.18
2022-11-06T19:24:47.289Z,3.53
2022-11-06T19:27:13.697Z,3.67
2022-11-06T19:29:40.095Z,3.45
2022-11-06T19:32:06.544Z,3.63
2022-11-06T19:34:38.049Z,3.10
2022-11-06T19:37:07.090Z,5.07
2022-11-06T19:39:33.555Z,3.42
2022-11-06T19:42:00.265Z,2.72
2022-11-06T19:44:26.706Z,5.95
2022-11-06T19:46:53.100Z,4.05
2022-11-06T19:49:19.626Z,3.33
2022-11-06T19:51:46.227Z,2.97
2022-11-06T19:54:15.072Z,4.28
2022-11-06T19:57:28.321Z,3.55
2022-11-06T19:59:27.918Z,5.15
2022-11-06T20:01:54.531Z,5.00
2022-11-06T20:04:21.131Z,3.58
2022-11-06T20:06:47.636Z,4.88
2022-11-06T20:09:15.536Z,4.22
2022-11-06T20:11:41.929Z,5.45
2022-11-06T20:14:08.523Z,4.60
2022-11-06T20:16:34.926Z,5.45
2022-11-06T20:19:01.759Z,4.07
2022-11-06T20:21:28.693Z,5.10
2022-11-06T20:23:55.590Z,5.55
2022-11-06T20:26:24.074Z,5.90
2022-11-06T20:28:50.617Z,4.05
2022-11-06T20:31:18.200Z,4.40
2022-11-06T20:33:44.966Z,3.83
2022-11-06T20:36:13.120Z,5.18
2022-11-06T20:38:39.859Z,4.38
2022-11-06T20:41:06.830Z,4.65
2022-11-06T20:43:34.578Z,4.97
2022-11-06T20:46:01.594Z,5.05
2022-11-06T20:48:28.081Z,5.93
2022-11-06T20:50:58.111Z,8.68
2022-11-06T20:53:24.631Z,5.68
2022-11-06T20:55:55.483Z,6.32
2022-11-06T20:58:21.889Z,7.53
2022-11-06T21:00:49.654Z,6.57
2022-11-06T21:03:16.344Z,7.00
2022-11-06T21:05:42.996Z,8.25
2022-11-06T21:08:09.835Z,7.25
2022-11-06T21:10:36.225Z,7.43
2022-11-06T21:13:02.660Z,4.80
2022-11-06T21:15:29.206Z,6.82
2022-11-06T21:17:56.984Z,9.75
2022-11-06T21:20:23.452Z,5.30
2022-11-06T21:22:49.946Z,13.00
2022-11-06T21:25:16.453Z,5.18
2022-11-06T21:27:42.880Z,4.85
2022-11-06T21:30:10.711Z,5.72
2022-11-06T21:32:37.137Z,7.72
2022-11-06T21:35:06.048Z,5.72
2022-11-06T21:37:32.446Z,7.15
2022-11-06T21:39:59.001Z,6.00
2022-11-06T21:42:25.493Z,6.43
2022-11-06T21:44:51.920Z,6.03
2022-11-06T21:47:18.328Z,5.38
2022-11-06T21:49:44.741Z,8.00
2022-11-06T21:52:12.511Z,7.10
2022-11-06T21:54:38.895Z,5.20
2022-11-06T21:57:05.427Z,5.43
2022-11-06T21:59:31.816Z,7.78
2022-11-06T22:01:58.430Z,7.53
2022-11-06T22:04:25.087Z,6.22
2022-11-06T22:06:51.511Z,7.78
2022-11-06T22:09:24.454Z,5.07
2022-11-06T22:11:51.921Z,5.53
2022-11-06T22:14:18.308Z,5.68
2022-11-06T22:16:46.245Z,6.97
2022-11-06T22:19:13.984Z,5.75
2022-11-06T22:21:40.917Z,6.57
2022-11-06T22:24:08.442Z,6.40
2022-11-06T22:26:36.514Z,7.90
2022-11-06T22:29:06.179Z,7.25
2022-11-06T22:31:33.126Z,7.20
2022-11-06T22:34:00.048Z,5.78
2022-11-06T22:36:26.877Z,5.80
2022-11-06T22:38:53.601Z,5.05
2022-11-06T22:41:23.153Z,6.05
2022-11-06T22:43:51.489Z,6.38
2022-11-06T22:46:20.540Z,5.57
2022-11-06T22:48:47.195Z,4.72
2022-11-06T22:51:16.354Z,5.57
2022-11-06T22:53:43.220Z,5.38
2022-11-06T22:56:10.671Z,5.07
2022-11-06T22:58:37.080Z,5.68
2022-11-06T23:01:05.128Z,9.40
2022-11-06T23:03:31.857Z,5.25
2022-11-06T23:06:03.010Z,5.57
2022-11-06T23:08:29.414Z,5.38
2022-11-06T23:10:56.433Z,6.70
2022-11-06T23:13:22.914Z,7.57
2022-11-06T23:15:49.902Z,5.30
2022-11-06T23:18:17.826Z,5.15
2022-11-06T23:20:44.210Z,6.95
2022-11-06T23:23:11.121Z,4.90
2022-11-06T23:25:37.897Z,8.60
2022-11-06T23:28:04.722Z,5.55
2022-11-06T23:30:31.597Z,4.20
2022-11-06T23:32:58.627Z,8.63
2022-11-06T23:35:32.175Z,7.68
2022-11-06T23:37:59.232Z,4.93
2022-11-06T23:40:25.671Z,4.68
2022-11-06T23:42:52.155Z,8.05
2022-11-06T23:45:19.489Z,5.85
2022-11-06T23:47:48.249Z,6.55
2022-11-06T23:50:15.564Z,8.38
2022-11-06T23:52:43.447Z,5.35
2022-11-06T23:55:10.415Z,5.75
2022-11-06T23:57:37.380Z,6.28
